CheckWX is a tool to help pilots better visualize weather data.  It is not intended as a substitute for an official pre-flight weather briefing.

14:32:05 UTC

LFPV METAR
Villacoublay-Vélizy (BA 107) Air Base Airport
Villacoublay/Vélizy, France
Current

32 mins ago

LFPV 161400Z AUTO 30004KT 250V010 CAVOK 23/09 Q1018
Observed
Jul-16 @ 14:00 UTC
Wind
  • 300° at 4 KTS
Visibility
10,000+ meters
Flight Rules
VFR
Cloud Levels
  • Clear skies
Temperature
23°C / 73°F
Dewpoint
C / 48°F
Humidity
41%
Altimeter
30.06" Hg
Pressure
1017.92 hPa
Previous

1 hour ago

LFPV 161330Z AUTO 32006KT 270V020 CAVOK 23/08 Q1018 NOSIG
Observed
Jul-16 @ 13:30 UTC
Wind
  • 320° at 6 KTS
Visibility
10,000+ meters
Flight Rules
VFR
Cloud Levels
  • Clear skies
Temperature
23°C / 73°F
Dewpoint
C / 46°F
Humidity
38%
Altimeter
30.06" Hg
Pressure
1017.92 hPa
Previous

2 hours ago

LFPV 161300Z AUTO VRB04KT CAVOK 23/09 Q1018 NOSIG
Observed
Jul-16 @ 13:00 UTC
Wind
  • Variable at 4 KTS
Visibility
10,000+ meters
Flight Rules
VFR
Cloud Levels
  • Clear skies
Temperature
23°C / 73°F
Dewpoint
C / 48°F
Humidity
41%
Altimeter
30.06" Hg
Pressure
1017.92 hPa